sensor_id;sensor_type;location;lat;lon;timestamp;P1;P2;P0
72023;PMS5003;59889;50.700;5.440;2024-01-11T00:00:32;9;9;
72023;PMS5003;59889;50.700;5.440;2024-01-11T00:02:57;14;12;
72023;PMS5003;59889;50.700;5.440;2024-01-11T00:05:22;11;11;
72023;PMS5003;59889;50.700;5.440;2024-01-11T00:07:47;10;9;
72023;PMS5003;59889;50.700;5.440;2024-01-11T00:10:13;10;10;
72023;PMS5003;59889;50.700;5.440;2024-01-11T00:12:38;11;8;
72023;PMS5003;59889;50.700;5.440;2024-01-11T00:15:04;12;12;
72023;PMS5003;59889;50.700;5.440;2024-01-11T00:17:28;11;10;
72023;PMS5003;59889;50.700;5.440;2024-01-11T00:19:53;12;11;
72023;PMS5003;59889;50.700;5.440;2024-01-11T00:22:20;12;11;
72023;PMS5003;59889;50.700;5.440;2024-01-11T00:24:44;12;10;
72023;PMS5003;59889;50.700;5.440;2024-01-11T00:27:09;11;10;
72023;PMS5003;59889;50.700;5.440;2024-01-11T00:29:35;11;10;
72023;PMS5003;59889;50.700;5.440;2024-01-11T00:31:59;10;9;
72023;PMS5003;59889;50.700;5.440;2024-01-11T00:34:24;11;10;
72023;PMS5003;59889;50.700;5.440;2024-01-11T00:36:49;13;11;
72023;PMS5003;59889;50.700;5.440;2024-01-11T00:39:15;10;10;
72023;PMS5003;59889;50.700;5.440;2024-01-11T00:41:40;14;14;
72023;PMS5003;59889;50.700;5.440;2024-01-11T00:44:05;11;10;
72023;PMS5003;59889;50.700;5.440;2024-01-11T00:46:30;11;10;
72023;PMS5003;59889;50.700;5.440;2024-01-11T00:48:56;11;11;
72023;PMS5003;59889;50.700;5.440;2024-01-11T00:51:21;11;11;
72023;PMS5003;59889;50.700;5.440;2024-01-11T00:53:46;14;12;
72023;PMS5003;59889;50.700;5.440;2024-01-11T00:56:16;9;9;
72023;PMS5003;59889;50.700;5.440;2024-01-11T00:58:38;10;10;
72023;PMS5003;59889;50.700;5.440;2024-01-11T01:01:02;11;10;
72023;PMS5003;59889;50.700;5.440;2024-01-11T01:03:27;11;11;
72023;PMS5003;59889;50.700;5.440;2024-01-11T01:05:52;12;11;
72023;PMS5003;59889;50.700;5.440;2024-01-11T01:08:17;12;11;
72023;PMS5003;59889;50.700;5.440;2024-01-11T01:10:42;11;10;
72023;PMS5003;59889;50.700;5.440;2024-01-11T01:13:07;11;10;
72023;PMS5003;59889;50.700;5.440;2024-01-11T01:15:32;12;12;
72023;PMS5003;59889;50.700;5.440;2024-01-11T01:17:58;9;8;
72023;PMS5003;59889;50.700;5.440;2024-01-11T01:20:23;13;13;
72023;PMS5003;59889;50.700;5.440;2024-01-11T01:22:49;11;10;
72023;PMS5003;59889;50.700;5.440;2024-01-11T01:25:13;11;11;
72023;PMS5003;59889;50.700;5.440;2024-01-11T01:27:38;10;10;
72023;PMS5003;59889;50.700;5.440;2024-01-11T01:30:04;14;12;
72023;PMS5003;59889;50.700;5.440;2024-01-11T01:32:28;11;10;
72023;PMS5003;59889;50.700;5.440;2024-01-11T01:34:54;10;10;
72023;PMS5003;59889;50.700;5.440;2024-01-11T01:37:19;9;9;
72023;PMS5003;59889;50.700;5.440;2024-01-11T01:39:44;11;10;
72023;PMS5003;59889;50.700;5.440;2024-01-11T01:42:09;11;10;
72023;PMS5003;59889;50.700;5.440;2024-01-11T01:44:34;12;11;
72023;PMS5003;59889;50.700;5.440;2024-01-11T01:47:00;12;12;
72023;PMS5003;59889;50.700;5.440;2024-01-11T01:49:25;11;11;
72023;PMS5003;59889;50.700;5.440;2024-01-11T01:51:51;9;9;
72023;PMS5003;59889;50.700;5.440;2024-01-11T01:54:16;12;10;
72023;PMS5003;59889;50.700;5.440;2024-01-11T01:56:41;10;8;
72023;PMS5003;59889;50.700;5.440;2024-01-11T01:59:06;11;10;
72023;PMS5003;59889;50.700;5.440;2024-01-11T02:01:31;11;10;
72023;PMS5003;59889;50.700;5.440;2024-01-11T02:03:56;10;9;
72023;PMS5003;59889;50.700;5.440;2024-01-11T02:06:23;13;12;
72023;PMS5003;59889;50.700;5.440;2024-01-11T02:08:47;10;10;
72023;PMS5003;59889;50.700;5.440;2024-01-11T02:11:12;11;10;
72023;PMS5003;59889;50.700;5.440;2024-01-11T02:13:37;10;9;
72023;PMS5003;59889;50.700;5.440;2024-01-11T02:16:03;13;12;
72023;PMS5003;59889;50.700;5.440;2024-01-11T02:18:28;9;9;
72023;PMS5003;59889;50.700;5.440;2024-01-11T02:20:53;11;10;
72023;PMS5003;59889;50.700;5.440;2024-01-11T02:23:19;10;10;
72023;PMS5003;59889;50.700;5.440;2024-01-11T02:25:43;9;9;
72023;PMS5003;59889;50.700;5.440;2024-01-11T02:28:08;15;13;
72023;PMS5003;59889;50.700;5.440;2024-01-11T02:30:34;13;10;
72023;PMS5003;59889;50.700;5.440;2024-01-11T02:32:58;9;9;
72023;PMS5003;59889;50.700;5.440;2024-01-11T02:35:24;12;12;
72023;PMS5003;59889;50.700;5.440;2024-01-11T02:37:49;9;9;
72023;PMS5003;59889;50.700;5.440;2024-01-11T02:40:14;12;12;
72023;PMS5003;59889;50.700;5.440;2024-01-11T02:42:39;12;12;
72023;PMS5003;59889;50.700;5.440;2024-01-11T02:45:05;11;10;
72023;PMS5003;59889;50.700;5.440;2024-01-11T02:47:30;12;11;
72023;PMS5003;59889;50.700;5.440;2024-01-11T02:49:55;11;9;
72023;PMS5003;59889;50.700;5.440;2024-01-11T02:52:20;10;10;
72023;PMS5003;59889;50.700;5.440;2024-01-11T02:54:45;12;11;
72023;PMS5003;59889;50.700;5.440;2024-01-11T02:57:10;8;8;
72023;PMS5003;59889;50.700;5.440;2024-01-11T02:59:36;10;10;
72023;PMS5003;59889;50.700;5.440;2024-01-11T03:02:01;12;10;
72023;PMS5003;59889;50.700;5.440;2024-01-11T03:04:26;11;11;
72023;PMS5003;59889;50.700;5.440;2024-01-11T03:06:51;11;11;
72023;PMS5003;59889;50.700;5.440;2024-01-11T03:09:16;12;11;
72023;PMS5003;59889;50.700;5.440;2024-01-11T03:11:41;12;12;
72023;PMS5003;59889;50.700;5.440;2024-01-11T03:14:07;10;9;
72023;PMS5003;59889;50.700;5.440;2024-01-11T03:16:32;8;8;
72023;PMS5003;59889;50.700;5.440;2024-01-11T03:18:57;10;9;
72023;PMS5003;59889;50.700;5.440;2024-01-11T03:21:22;10;10;
72023;PMS5003;59889;50.700;5.440;2024-01-11T03:23:48;10;10;
72023;PMS5003;59889;50.700;5.440;2024-01-11T03:26:13;11;10;
72023;PMS5003;59889;50.700;5.440;2024-01-11T03:28:38;10;10;
72023;PMS5003;59889;50.700;5.440;2024-01-11T03:31:03;13;10;
72023;PMS5003;59889;50.700;5.440;2024-01-11T03:33:28;11;11;
72023;PMS5003;59889;50.700;5.440;2024-01-11T03:35:53;13;12;
72023;PMS5003;59889;50.700;5.440;2024-01-11T03:38:18;8;8;
72023;PMS5003;59889;50.700;5.440;2024-01-11T03:40:44;12;11;
72023;PMS5003;59889;50.700;5.440;2024-01-11T03:43:09;12;11;
72023;PMS5003;59889;50.700;5.440;2024-01-11T03:45:34;8;8;
72023;PMS5003;59889;50.700;5.440;2024-01-11T03:47:59;12;10;
72023;PMS5003;59889;50.700;5.440;2024-01-11T03:50:24;10;10;
72023;PMS5003;59889;50.700;5.440;2024-01-11T03:52:49;9;9;
72023;PMS5003;59889;50.700;5.440;2024-01-11T03:55:15;10;9;
72023;PMS5003;59889;50.700;5.440;2024-01-11T03:57:40;11;11;
72023;PMS5003;59889;50.700;5.440;2024-01-11T04:00:06;10;10;
72023;PMS5003;59889;50.700;5.440;2024-01-11T04:02:31;12;10;
72023;PMS5003;59889;50.700;5.440;2024-01-11T04:04:56;10;9;
72023;PMS5003;59889;50.700;5.440;2024-01-11T04:07:21;13;12;
72023;PMS5003;59889;50.700;5.440;2024-01-11T04:09:46;10;10;
72023;PMS5003;59889;50.700;5.440;2024-01-11T04:12:11;10;9;
72023;PMS5003;59889;50.700;5.440;2024-01-11T04:14:37;12;11;
72023;PMS5003;59889;50.700;5.440;2024-01-11T04:17:02;11;10;
72023;PMS5003;59889;50.700;5.440;2024-01-11T04:19:27;10;10;
72023;PMS5003;59889;50.700;5.440;2024-01-11T04:21:52;13;11;
72023;PMS5003;59889;50.700;5.440;2024-01-11T04:24:17;9;9;
72023;PMS5003;59889;50.700;5.440;2024-01-11T04:26:43;10;10;
72023;PMS5003;59889;50.700;5.440;2024-01-11T04:29:08;11;11;
72023;PMS5003;59889;50.700;5.440;2024-01-11T04:31:33;11;11;
72023;PMS5003;59889;50.700;5.440;2024-01-11T04:33:58;12;12;
72023;PMS5003;59889;50.700;5.440;2024-01-11T04:36:23;11;10;
72023;PMS5003;59889;50.700;5.440;2024-01-11T04:38:49;11;10;
72023;PMS5003;59889;50.700;5.440;2024-01-11T04:41:14;11;11;
72023;PMS5003;59889;50.700;5.440;2024-01-11T04:43:40;14;13;
72023;PMS5003;59889;50.700;5.440;2024-01-11T04:48:30;12;12;
72023;PMS5003;59889;50.700;5.440;2024-01-11T04:50:57;12;11;
72023;PMS5003;59889;50.700;5.440;2024-01-11T04:53:21;13;11;
72023;PMS5003;59889;50.700;5.440;2024-01-11T04:55:46;9;9;
72023;PMS5003;59889;50.700;5.440;2024-01-11T04:58:11;12;11;
72023;PMS5003;59889;50.700;5.440;2024-01-11T05:00:37;14;14;
72023;PMS5003;59889;50.700;5.440;2024-01-11T05:03:03;10;10;
72023;PMS5003;59889;50.700;5.440;2024-01-11T05:05:27;9;9;
72023;PMS5003;59889;50.700;5.440;2024-01-11T05:07:53;17;15;
72023;PMS5003;59889;50.700;5.440;2024-01-11T05:10:18;20;19;
72023;PMS5003;59889;50.700;5.440;2024-01-11T05:12:43;21;20;
72023;PMS5003;59889;50.700;5.440;2024-01-11T05:15:08;33;32;
72023;PMS5003;59889;50.700;5.440;2024-01-11T05:17:33;29;27;
72023;PMS5003;59889;50.700;5.440;2024-01-11T05:19:59;30;27;
72023;PMS5003;59889;50.700;5.440;2024-01-11T05:22:24;32;29;
72023;PMS5003;59889;50.700;5.440;2024-01-11T05:24:49;32;29;
72023;PMS5003;59889;50.700;5.440;2024-01-11T05:27:15;32;30;
72023;PMS5003;59889;50.700;5.440;2024-01-11T05:29:41;30;27;
72023;PMS5003;59889;50.700;5.440;2024-01-11T05:32:07;34;30;
72023;PMS5003;59889;50.700;5.440;2024-01-11T05:34:33;26;24;
72023;PMS5003;59889;50.700;5.440;2024-01-11T05:36:58;30;28;
72023;PMS5003;59889;50.700;5.440;2024-01-11T05:39:24;31;28;
72023;PMS5003;59889;50.700;5.440;2024-01-11T05:41:48;30;28;
72023;PMS5003;59889;50.700;5.440;2024-01-11T05:44:13;23;22;
72023;PMS5003;59889;50.700;5.440;2024-01-11T05:46:39;24;22;
72023;PMS5003;59889;50.700;5.440;2024-01-11T05:49:04;27;24;
72023;PMS5003;59889;50.700;5.440;2024-01-11T05:51:30;24;23;
72023;PMS5003;59889;50.700;5.440;2024-01-11T05:53:56;27;26;
72023;PMS5003;59889;50.700;5.440;2024-01-11T05:56:21;31;27;
72023;PMS5003;59889;50.700;5.440;2024-01-11T05:58:47;26;25;
72023;PMS5003;59889;50.700;5.440;2024-01-11T06:01:13;22;21;
72023;PMS5003;59889;50.700;5.440;2024-01-11T06:03:38;22;20;
72023;PMS5003;59889;50.700;5.440;2024-01-11T06:06:04;24;23;
72023;PMS5003;59889;50.700;5.440;2024-01-11T06:08:29;25;24;
72023;PMS5003;59889;50.700;5.440;2024-01-11T06:10:55;24;21;
72023;PMS5003;59889;50.700;5.440;2024-01-11T06:13:20;22;22;
72023;PMS5003;59889;50.700;5.440;2024-01-11T06:15:46;21;20;
72023;PMS5003;59889;50.700;5.440;2024-01-11T06:18:12;23;21;
72023;PMS5003;59889;50.700;5.440;2024-01-11T06:20:37;21;20;
72023;PMS5003;59889;50.700;5.440;2024-01-11T06:23:03;23;21;
72023;PMS5003;59889;50.700;5.440;2024-01-11T06:25:29;28;24;
72023;PMS5003;59889;50.700;5.440;2024-01-11T06:27:54;23;23;
72023;PMS5003;59889;50.700;5.440;2024-01-11T06:30:20;22;20;
72023;PMS5003;59889;50.700;5.440;2024-01-11T06:32:46;22;21;
72023;PMS5003;59889;50.700;5.440;2024-01-11T06:35:11;23;22;
72023;PMS5003;59889;50.700;5.440;2024-01-11T06:37:36;23;22;
72023;PMS5003;59889;50.700;5.440;2024-01-11T06:40:01;27;23;
72023;PMS5003;59889;50.700;5.440;2024-01-11T06:42:26;25;23;
72023;PMS5003;59889;50.700;5.440;2024-01-11T06:44:52;26;23;
72023;PMS5003;59889;50.700;5.440;2024-01-11T06:47:17;22;20;
72023;PMS5003;59889;50.700;5.440;2024-01-11T06:49:43;22;20;
72023;PMS5003;59889;50.700;5.440;2024-01-11T06:52:08;25;23;
72023;PMS5003;59889;50.700;5.440;2024-01-11T06:54:34;27;22;
72023;PMS5003;59889;50.700;5.440;2024-01-11T06:57:00;23;22;
72023;PMS5003;59889;50.700;5.440;2024-01-11T06:59:25;27;25;
72023;PMS5003;59889;50.700;5.440;2024-01-11T07:01:50;27;22;
72023;PMS5003;59889;50.700;5.440;2024-01-11T07:04:16;24;22;
72023;PMS5003;59889;50.700;5.440;2024-01-11T07:06:41;24;21;
72023;PMS5003;59889;50.700;5.440;2024-01-11T07:09:06;23;22;
72023;PMS5003;59889;50.700;5.440;2024-01-11T07:11:33;16;16;
72023;PMS5003;59889;50.700;5.440;2024-01-11T07:13:58;26;22;
72023;PMS5003;59889;50.700;5.440;2024-01-11T07:16:23;22;20;
72023;PMS5003;59889;50.700;5.440;2024-01-11T07:18:49;23;22;
72023;PMS5003;59889;50.700;5.440;2024-01-11T07:21:19;22;18;
72023;PMS5003;59889;50.700;5.440;2024-01-11T07:23:40;23;21;
72023;PMS5003;59889;50.700;5.440;2024-01-11T07:26:07;27;25;
72023;PMS5003;59889;50.700;5.440;2024-01-11T07:28:31;22;20;
72023;PMS5003;59889;50.700;5.440;2024-01-11T07:30:56;24;23;
72023;PMS5003;59889;50.700;5.440;2024-01-11T07:33:22;23;22;
72023;PMS5003;59889;50.700;5.440;2024-01-11T07:35:48;24;21;
72023;PMS5003;59889;50.700;5.440;2024-01-11T07:38:13;32;29;
72023;PMS5003;59889;50.700;5.440;2024-01-11T07:40:38;25;23;
72023;PMS5003;59889;50.700;5.440;2024-01-11T07:43:03;21;20;
72023;PMS5003;59889;50.700;5.440;2024-01-11T07:45:29;21;21;
72023;PMS5003;59889;50.700;5.440;2024-01-11T07:47:55;32;23;
72023;PMS5003;59889;50.700;5.440;2024-01-11T07:50:20;27;21;
72023;PMS5003;59889;50.700;5.440;2024-01-11T07:52:45;25;23;
72023;PMS5003;59889;50.700;5.440;2024-01-11T07:55:10;25;24;
72023;PMS5003;59889;50.700;5.440;2024-01-11T07:57:35;22;21;
72023;PMS5003;59889;50.700;5.440;2024-01-11T08:00:02;27;24;
72023;PMS5003;59889;50.700;5.440;2024-01-11T08:02:27;24;22;
72023;PMS5003;59889;50.700;5.440;2024-01-11T08:04:52;26;24;
72023;PMS5003;59889;50.700;5.440;2024-01-11T08:07:18;28;25;
72023;PMS5003;59889;50.700;5.440;2024-01-11T08:09:43;19;18;
72023;PMS5003;59889;50.700;5.440;2024-01-11T08:12:08;22;20;
72023;PMS5003;59889;50.700;5.440;2024-01-11T08:14:33;18;18;
72023;PMS5003;59889;50.700;5.440;2024-01-11T08:16:59;25;22;
72023;PMS5003;59889;50.700;5.440;2024-01-11T08:19:25;23;20;
72023;PMS5003;59889;50.700;5.440;2024-01-11T08:21:50;22;21;
72023;PMS5003;59889;50.700;5.440;2024-01-11T08:24:16;21;20;
72023;PMS5003;59889;50.700;5.440;2024-01-11T08:26:42;20;18;
72023;PMS5003;59889;50.700;5.440;2024-01-11T08:29:06;23;22;
72023;PMS5003;59889;50.700;5.440;2024-01-11T08:31:33;24;22;
72023;PMS5003;59889;50.700;5.440;2024-01-11T08:33:57;25;23;
72023;PMS5003;59889;50.700;5.440;2024-01-11T08:36:22;26;22;
72023;PMS5003;59889;50.700;5.440;2024-01-11T08:38:48;22;20;
72023;PMS5003;59889;50.700;5.440;2024-01-11T08:41:13;28;25;
72023;PMS5003;59889;50.700;5.440;2024-01-11T08:43:39;23;23;
72023;PMS5003;59889;50.700;5.440;2024-01-11T08:46:04;21;19;
72023;PMS5003;59889;50.700;5.440;2024-01-11T08:48:30;20;19;
72023;PMS5003;59889;50.700;5.440;2024-01-11T08:50:56;21;21;
72023;PMS5003;59889;50.700;5.440;2024-01-11T08:53:21;26;21;
72023;PMS5003;59889;50.700;5.440;2024-01-11T08:55:46;22;21;
72023;PMS5003;59889;50.700;5.440;2024-01-11T08:58:11;26;23;
72023;PMS5003;59889;50.700;5.440;2024-01-11T09:00:37;23;22;
72023;PMS5003;59889;50.700;5.440;2024-01-11T09:03:03;24;23;
72023;PMS5003;59889;50.700;5.440;2024-01-11T09:05:29;22;20;
72023;PMS5003;59889;50.700;5.440;2024-01-11T09:07:54;25;23;
72023;PMS5003;59889;50.700;5.440;2024-01-11T09:10:19;22;20;
72023;PMS5003;59889;50.700;5.440;2024-01-11T09:12:44;21;20;
72023;PMS5003;59889;50.700;5.440;2024-01-11T09:15:10;19;18;
72023;PMS5003;59889;50.700;5.440;2024-01-11T09:17:37;21;19;
72023;PMS5003;59889;50.700;5.440;2024-01-11T09:20:01;25;22;
72023;PMS5003;59889;50.700;5.440;2024-01-11T09:22:27;22;19;
72023;PMS5003;59889;50.700;5.440;2024-01-11T09:24:53;22;20;
72023;PMS5003;59889;50.700;5.440;2024-01-11T09:27:18;21;20;
72023;PMS5003;59889;50.700;5.440;2024-01-11T09:29:45;21;20;
72023;PMS5003;59889;50.700;5.440;2024-01-11T09:32:09;26;24;
72023;PMS5003;59889;50.700;5.440;2024-01-11T09:34:35;21;20;
72023;PMS5003;59889;50.700;5.440;2024-01-11T09:37:00;22;21;
72023;PMS5003;59889;50.700;5.440;2024-01-11T09:39:26;23;22;
72023;PMS5003;59889;50.700;5.440;2024-01-11T09:41:52;24;21;
72023;PMS5003;59889;50.700;5.440;2024-01-11T09:44:17;26;24;
72023;PMS5003;59889;50.700;5.440;2024-01-11T09:46:42;21;20;
72023;PMS5003;59889;50.700;5.440;2024-01-11T09:49:07;26;22;
72023;PMS5003;59889;50.700;5.440;2024-01-11T09:51:33;25;25;
72023;PMS5003;59889;50.700;5.440;2024-01-11T09:53:58;25;22;
72023;PMS5003;59889;50.700;5.440;2024-01-11T09:56:24;28;25;
72023;PMS5003;59889;50.700;5.440;2024-01-11T09:58:50;23;20;
72023;PMS5003;59889;50.700;5.440;2024-01-11T10:01:14;18;18;
72023;PMS5003;59889;50.700;5.440;2024-01-11T10:03:41;21;20;
72023;PMS5003;59889;50.700;5.440;2024-01-11T10:06:06;23;20;
72023;PMS5003;59889;50.700;5.440;2024-01-11T10:08:31;26;24;
72023;PMS5003;59889;50.700;5.440;2024-01-11T10:10:56;30;24;
72023;PMS5003;59889;50.700;5.440;2024-01-11T10:13:25;27;26;
72023;PMS5003;59889;50.700;5.440;2024-01-11T10:15:48;21;21;
72023;PMS5003;59889;50.700;5.440;2024-01-11T10:18:13;23;20;
72023;PMS5003;59889;50.700;5.440;2024-01-11T10:20:40;27;25;
72023;PMS5003;59889;50.700;5.440;2024-01-11T10:23:05;20;18;
72023;PMS5003;59889;50.700;5.440;2024-01-11T10:25:31;27;24;
72023;PMS5003;59889;50.700;5.440;2024-01-11T10:27:56;22;22;
72023;PMS5003;59889;50.700;5.440;2024-01-11T10:30:22;22;21;
72023;PMS5003;59889;50.700;5.440;2024-01-11T10:32:48;23;20;
72023;PMS5003;59889;50.700;5.440;2024-01-11T10:35:13;25;20;
72023;PMS5003;59889;50.700;5.440;2024-01-11T10:37:38;24;22;
72023;PMS5003;59889;50.700;5.440;2024-01-11T10:40:06;24;23;
72023;PMS5003;59889;50.700;5.440;2024-01-11T10:42:28;25;23;
72023;PMS5003;59889;50.700;5.440;2024-01-11T10:44:54;30;24;
72023;PMS5003;59889;50.700;5.440;2024-01-11T10:47:19;21;21;
72023;PMS5003;59889;50.700;5.440;2024-01-11T10:49:45;26;23;
72023;PMS5003;59889;50.700;5.440;2024-01-11T10:52:10;25;24;
72023;PMS5003;59889;50.700;5.440;2024-01-11T10:54:35;26;24;
72023;PMS5003;59889;50.700;5.440;2024-01-11T10:57:00;23;20;
72023;PMS5003;59889;50.700;5.440;2024-01-11T10:59:27;24;22;
72023;PMS5003;59889;50.700;5.440;2024-01-11T11:01:51;25;23;
72023;PMS5003;59889;50.700;5.440;2024-01-11T11:04:16;22;21;
72023;PMS5003;59889;50.700;5.440;2024-01-11T11:06:42;23;22;
72023;PMS5003;59889;50.700;5.440;2024-01-11T11:09:08;25;23;
72023;PMS5003;59889;50.700;5.440;2024-01-11T11:11:33;28;21;
72023;PMS5003;59889;50.700;5.440;2024-01-11T11:13:58;24;22;
72023;PMS5003;59889;50.700;5.440;2024-01-11T11:16:25;26;25;
72023;PMS5003;59889;50.700;5.440;2024-01-11T11:18:50;21;20;
72023;PMS5003;59889;50.700;5.440;2024-01-11T11:21:15;19;17;
72023;PMS5003;59889;50.700;5.440;2024-01-11T11:23:41;23;21;
72023;PMS5003;59889;50.700;5.440;2024-01-11T11:26:06;29;24;
72023;PMS5003;59889;50.700;5.440;2024-01-11T11:28:31;23;21;
72023;PMS5003;59889;50.700;5.440;2024-01-11T11:30:57;21;19;
72023;PMS5003;59889;50.700;5.440;2024-01-11T11:33:23;28;25;
72023;PMS5003;59889;50.700;5.440;2024-01-11T11:35:48;28;25;
72023;PMS5003;59889;50.700;5.440;2024-01-11T11:38:17;24;22;
72023;PMS5003;59889;50.700;5.440;2024-01-11T11:40:38;25;22;
72023;PMS5003;59889;50.700;5.440;2024-01-11T11:43:04;23;21;
72023;PMS5003;59889;50.700;5.440;2024-01-11T11:45:29;22;20;
72023;PMS5003;59889;50.700;5.440;2024-01-11T11:47:55;24;22;
72023;PMS5003;59889;50.700;5.440;2024-01-11T11:50:26;22;21;
72023;PMS5003;59889;50.700;5.440;2024-01-11T11:52:46;21;20;
72023;PMS5003;59889;50.700;5.440;2024-01-11T11:55:11;23;21;
72023;PMS5003;59889;50.700;5.440;2024-01-11T11:57:37;23;21;
72023;PMS5003;59889;50.700;5.440;2024-01-11T12:00:02;28;23;
72023;PMS5003;59889;50.700;5.440;2024-01-11T12:02:28;27;26;
72023;PMS5003;59889;50.700;5.440;2024-01-11T12:04:54;26;24;
72023;PMS5003;59889;50.700;5.440;2024-01-11T12:07:19;27;26;
72023;PMS5003;59889;50.700;5.440;2024-01-11T12:09:52;24;23;
72023;PMS5003;59889;50.700;5.440;2024-01-11T12:12:09;27;25;
72023;PMS5003;59889;50.700;5.440;2024-01-11T12:14:35;24;22;
72023;PMS5003;59889;50.700;5.440;2024-01-11T12:17:00;30;27;
72023;PMS5003;59889;50.700;5.440;2024-01-11T12:19:26;22;20;
72023;PMS5003;59889;50.700;5.440;2024-01-11T12:21:51;28;25;
72023;PMS5003;59889;50.700;5.440;2024-01-11T12:24:17;21;20;
72023;PMS5003;59889;50.700;5.440;2024-01-11T12:26:42;31;26;
72023;PMS5003;59889;50.700;5.440;2024-01-11T12:29:07;24;22;
72023;PMS5003;59889;50.700;5.440;2024-01-11T12:31:32;26;23;
72023;PMS5003;59889;50.700;5.440;2024-01-11T12:33:58;32;28;
72023;PMS5003;59889;50.700;5.440;2024-01-11T12:36:23;25;23;
72023;PMS5003;59889;50.700;5.440;2024-01-11T12:38:48;29;27;
72023;PMS5003;59889;50.700;5.440;2024-01-11T12:41:14;23;21;
72023;PMS5003;59889;50.700;5.440;2024-01-11T12:43:40;26;23;
72023;PMS5003;59889;50.700;5.440;2024-01-11T12:46:05;30;25;
72023;PMS5003;59889;50.700;5.440;2024-01-11T12:48:31;32;26;
72023;PMS5003;59889;50.700;5.440;2024-01-11T12:50:57;24;24;
72023;PMS5003;59889;50.700;5.440;2024-01-11T12:53:22;24;21;
72023;PMS5003;59889;50.700;5.440;2024-01-11T12:55:48;24;21;
72023;PMS5003;59889;50.700;5.440;2024-01-11T12:58:13;25;22;
72023;PMS5003;59889;50.700;5.440;2024-01-11T13:00:39;23;22;
72023;PMS5003;59889;50.700;5.440;2024-01-11T13:03:04;26;24;
72023;PMS5003;59889;50.700;5.440;2024-01-11T13:05:29;21;20;
72023;PMS5003;59889;50.700;5.440;2024-01-11T13:07:55;22;20;
72023;PMS5003;59889;50.700;5.440;2024-01-11T13:10:21;21;20;
72023;PMS5003;59889;50.700;5.440;2024-01-11T13:12:46;28;26;
72023;PMS5003;59889;50.700;5.440;2024-01-11T13:15:11;23;21;
72023;PMS5003;59889;50.700;5.440;2024-01-11T13:17:36;30;29;
72023;PMS5003;59889;50.700;5.440;2024-01-11T13:20:02;27;27;
72023;PMS5003;59889;50.700;5.440;2024-01-11T13:22:27;31;31;
72023;PMS5003;59889;50.700;5.440;2024-01-11T13:24:53;29;28;
72023;PMS5003;59889;50.700;5.440;2024-01-11T13:27:18;29;27;
72023;PMS5003;59889;50.700;5.440;2024-01-11T13:29:44;24;23;
72023;PMS5003;59889;50.700;5.440;2024-01-11T13:32:09;26;24;
72023;PMS5003;59889;50.700;5.440;2024-01-11T13:34:35;31;28;
72023;PMS5003;59889;50.700;5.440;2024-01-11T13:37:02;31;28;
72023;PMS5003;59889;50.700;5.440;2024-01-11T13:39:25;29;26;
72023;PMS5003;59889;50.700;5.440;2024-01-11T13:41:50;28;23;
72023;PMS5003;59889;50.700;5.440;2024-01-11T13:44:16;26;23;
72023;PMS5003;59889;50.700;5.440;2024-01-11T13:46:42;24;22;
72023;PMS5003;59889;50.700;5.440;2024-01-11T13:49:07;25;23;
72023;PMS5003;59889;50.700;5.440;2024-01-11T13:51:32;31;25;
72023;PMS5003;59889;50.700;5.440;2024-01-11T13:53:58;24;23;
72023;PMS5003;59889;50.700;5.440;2024-01-11T13:56:24;27;25;
72023;PMS5003;59889;50.700;5.440;2024-01-11T13:58:49;26;25;
72023;PMS5003;59889;50.700;5.440;2024-01-11T14:01:15;26;24;
72023;PMS5003;59889;50.700;5.440;2024-01-11T14:03:41;29;27;
72023;PMS5003;59889;50.700;5.440;2024-01-11T14:06:06;27;24;
72023;PMS5003;59889;50.700;5.440;2024-01-11T14:08:33;24;21;
72023;PMS5003;59889;50.700;5.440;2024-01-11T14:10:57;26;24;
72023;PMS5003;59889;50.700;5.440;2024-01-11T14:13:23;29;26;
72023;PMS5003;59889;50.700;5.440;2024-01-11T14:15:48;23;22;
72023;PMS5003;59889;50.700;5.440;2024-01-11T14:18:13;19;19;
72023;PMS5003;59889;50.700;5.440;2024-01-11T14:20:39;22;20;
72023;PMS5003;59889;50.700;5.440;2024-01-11T14:23:05;25;24;
72023;PMS5003;59889;50.700;5.440;2024-01-11T14:25:31;24;24;
72023;PMS5003;59889;50.700;5.440;2024-01-11T14:27:56;21;21;
72023;PMS5003;59889;50.700;5.440;2024-01-11T14:30:21;30;27;
72023;PMS5003;59889;50.700;5.440;2024-01-11T14:32:47;22;20;
72023;PMS5003;59889;50.700;5.440;2024-01-11T14:35:12;21;19;
72023;PMS5003;59889;50.700;5.440;2024-01-11T14:37:38;27;25;
72023;PMS5003;59889;50.700;5.440;2024-01-11T14:40:04;25;24;
72023;PMS5003;59889;50.700;5.440;2024-01-11T14:42:29;24;22;
72023;PMS5003;59889;50.700;5.440;2024-01-11T14:44:54;24;23;
72023;PMS5003;59889;50.700;5.440;2024-01-11T14:47:20;31;29;
72023;PMS5003;59889;50.700;5.440;2024-01-11T14:49:45;28;25;
72023;PMS5003;59889;50.700;5.440;2024-01-11T14:52:10;25;23;
72023;PMS5003;59889;50.700;5.440;2024-01-11T14:54:36;26;21;
72023;PMS5003;59889;50.700;5.440;2024-01-11T14:57:01;24;23;
72023;PMS5003;59889;50.700;5.440;2024-01-11T14:59:27;20;20;
72023;PMS5003;59889;50.700;5.440;2024-01-11T15:01:53;27;23;
72023;PMS5003;59889;50.700;5.440;2024-01-11T15:04:17;25;24;
72023;PMS5003;59889;50.700;5.440;2024-01-11T15:06:43;22;22;
72023;PMS5003;59889;50.700;5.440;2024-01-11T15:09:08;27;23;
72023;PMS5003;59889;50.700;5.440;2024-01-11T15:11:34;27;26;
72023;PMS5003;59889;50.700;5.440;2024-01-11T15:13:59;22;18;
72023;PMS5003;59889;50.700;5.440;2024-01-11T15:16:24;23;21;
72023;PMS5003;59889;50.700;5.440;2024-01-11T15:18:50;26;24;
72023;PMS5003;59889;50.700;5.440;2024-01-11T15:21:16;28;24;
72023;PMS5003;59889;50.700;5.440;2024-01-11T15:23:41;24;23;
72023;PMS5003;59889;50.700;5.440;2024-01-11T15:26:07;24;23;
72023;PMS5003;59889;50.700;5.440;2024-01-11T15:28:33;23;20;
72023;PMS5003;59889;50.700;5.440;2024-01-11T15:30:58;27;23;
72023;PMS5003;59889;50.700;5.440;2024-01-11T15:33:23;24;20;
72023;PMS5003;59889;50.700;5.440;2024-01-11T15:35:48;28;26;
72023;PMS5003;59889;50.700;5.440;2024-01-11T15:38:15;27;24;
72023;PMS5003;59889;50.700;5.440;2024-01-11T15:40:40;24;20;
72023;PMS5003;59889;50.700;5.440;2024-01-11T15:43:05;19;18;
72023;PMS5003;59889;50.700;5.440;2024-01-11T15:45:31;21;19;
72023;PMS5003;59889;50.700;5.440;2024-01-11T15:47:56;24;21;
72023;PMS5003;59889;50.700;5.440;2024-01-11T15:50:21;22;19;
72023;PMS5003;59889;50.700;5.440;2024-01-11T15:52:46;22;20;
72023;PMS5003;59889;50.700;5.440;2024-01-11T15:55:12;21;20;
72023;PMS5003;59889;50.700;5.440;2024-01-11T15:57:37;23;20;
72023;PMS5003;59889;50.700;5.440;2024-01-11T16:00:02;19;18;
72023;PMS5003;59889;50.700;5.440;2024-01-11T16:02:27;21;20;
72023;PMS5003;59889;50.700;5.440;2024-01-11T16:04:53;21;20;
72023;PMS5003;59889;50.700;5.440;2024-01-11T16:07:19;20;19;